Time;durP1;ratioP1;P1;durP2;ratioP2;P2;SDS_P1;SDS_P2;PMS_P1;PMS_P2;Temp;Humidity;BMP_temperature;BMP_pressure;BME280_temperature;BME280_humidity;BME280_pressure;Samples;Min_cycle;Max_cycle;Signal;HPM_P1;HPM_P2
2022/01/14 00:01:53;;;;;;;36.80;18.02;;;;;;;3.62;84.32;103604.56;3587374;40;20044;-63
2022/01/14 00:04:18;;;;;;;41.33;18.80;;;;;;;3.48;84.18;103583.09;3589048;40;20283;-61
2022/01/14 00:06:45;;;;;;;41.33;20.80;;;;;;;3.55;84.59;103590.28;3585718;40;20067;-62
2022/01/14 00:09:12;;;;;;;35.67;19.33;;;;;;;3.57;84.84;103600.94;3587801;40;20052;-63
2022/01/14 00:11:49;;;;;;;33.67;19.15;;;;;;;3.63;84.53;103616.97;3591298;39;20048;-61
2022/01/14 00:16:42;;;;;;;34.25;16.75;;;;;;;3.53;84.31;103583.16;3589329;40;20084;-62
2022/01/14 00:19:08;;;;;;;30.45;16.88;;;;;;;3.61;84.47;103603.63;3588186;40;20062;-62
2022/01/14 00:21:36;;;;;;;35.80;19.75;;;;;;;3.64;84.72;103602.78;3590819;39;20277;-61
2022/01/14 00:24:08;;;;;;;36.85;20.88;;;;;;;3.39;84.01;103554.63;3586971;39;20052;-62
2022/01/14 00:32:10;;;;;;;32.80;16.75;;;;;;;3.67;84.38;103581.53;3588102;40;20362;-62
2022/01/14 00:34:35;;;;;;;41.80;16.73;;;;;;;3.64;84.36;103585.06;3589426;40;20044;-61
2022/01/14 00:37:03;;;;;;;31.50;16.17;;;;;;;3.48;83.97;103554.75;3589486;40;20059;-61
2022/01/14 00:39:29;;;;;;;32.88;16.90;;;;;;;3.53;84.19;103575.19;3588237;39;20047;-61
2022/01/14 00:41:55;;;;;;;34.83;16.42;;;;;;;3.53;84.14;103577.84;3586165;40;20072;-61
2022/01/14 00:44:21;;;;;;;28.88;16.10;;;;;;;3.52;84.31;103581.38;3586228;40;20084;-61
2022/01/14 00:46:49;;;;;;;32.55;17.73;;;;;;;3.53;84.39;103569.88;3586895;40;20059;-60
2022/01/14 00:49:18;;;;;;;29.23;17.05;;;;;;;3.54;84.40;103569.88;3589130;39;20052;-61
2022/01/14 00:51:44;;;;;;;34.55;17.17;;;;;;;3.55;84.26;103562.78;3584505;40;20056;-60
2022/01/14 00:54:11;;;;;;;36.35;16.70;;;;;;;3.55;84.26;103550.38;3590347;40;20051;-61
2022/01/14 00:59:15;;;;;;;31.80;16.27;;;;;;;3.52;84.01;103541.47;3595975;39;20596;-61
2022/01/14 01:01:51;;;;;;;47.05;15.45;;;;;;;3.51;83.66;103542.38;3588633;40;20129;-60
2022/01/14 01:04:30;;;;;;;41.88;15.20;;;;;;;3.47;83.83;103541.44;3586392;40;20060;-61
2022/01/14 01:06:57;;;;;;;34.28;15.32;;;;;;;3.44;84.27;103536.97;3585477;39;20073;-60
2022/01/14 01:09:25;;;;;;;28.05;15.20;;;;;;;3.45;84.45;103541.41;3584173;40;20055;-61
2022/01/14 01:12:15;;;;;;;40.00;14.63;;;;;;;3.41;84.56;103530.72;3585520;40;20079;-61
2022/01/14 01:15:02;;;;;;;38.55;15.32;;;;;;;3.37;83.78;103537.78;3587621;40;20508;-61
2022/01/14 01:17:27;;;;;;;31.60;14.23;;;;;;;3.37;84.16;103540.44;3587218;40;20060;-61
2022/01/14 01:19:53;;;;;;;31.73;13.20;;;;;;;3.26;83.90;103511.06;3586528;40;20048;-62
2022/01/14 01:22:18;;;;;;;31.80;14.43;;;;;;;3.23;84.08;103523.41;3585460;40;20055;-61
2022/01/14 01:24:44;;;;;;;39.05;15.20;;;;;;;3.24;84.06;103518.13;3590537;40;20048;-61
2022/01/14 01:27:10;;;;;;;31.67;14.13;;;;;;;3.26;84.27;103523.47;3584353;40;20112;-61
2022/01/14 01:32:03;;;;;;;24.48;13.95;;;;;;;3.24;84.18;103520.78;3586878;40;20064;-61
2022/01/14 01:34:28;;;;;;;31.70;14.98;;;;;;;2.81;84.34;103444.09;3590156;39;20087;-61
2022/01/14 01:36:58;;;;;;;50.35;16.17;;;;;;;3.31;84.63;103527.06;3585261;40;20063;-60
2022/01/14 01:39:27;;;;;;;31.50;13.98;;;;;;;3.21;84.03;103518.09;3587880;39;20052;-61
2022/01/14 01:42:05;;;;;;;45.13;14.40;;;;;;;3.25;83.93;103532.31;3590928;40;20056;-60
2022/01/14 01:44:34;;;;;;;29.38;14.90;;;;;;;3.25;84.27;103519.91;3585002;40;20048;-61
2022/01/14 01:46:59;;;;;;;27.85;15.23;;;;;;;3.15;84.25;103495.88;3588881;40;20199;-61
2022/01/14 01:49:32;;;;;;;31.45;14.73;;;;;;;3.17;84.28;103499.41;3589531;40;20060;-61
2022/01/14 01:51:58;;;;;;;44.07;15.13;;;;;;;3.21;84.82;103511.91;3587329;40;20393;-61
2022/01/14 01:54:26;;;;;;;34.78;15.32;;;;;;;3.22;84.19;103509.25;3587125;39;20297;-61
2022/01/14 01:56:52;;;;;;;25.45;15.75;;;;;;;3.23;84.05;103504.81;3583849;40;20052;-61
2022/01/14 01:59:21;;;;;;;49.33;13.68;;;;;;;3.21;84.06;103507.47;3588740;39;20342;-63
2022/01/14 02:01:47;;;;;;;39.92;13.57;;;;;;;3.24;84.01;103518.13;3581481;40;20052;-61
2022/01/14 02:04:13;;;;;;;28.73;14.93;;;;;;;3.15;84.03;103511.81;3587939;39;20121;-61
2022/01/14 02:06:40;;;;;;;43.20;15.18;;;;;;;3.13;84.07;103510.91;3584540;40;20052;-60
2022/01/14 02:09:12;;;;;;;32.25;13.90;;;;;;;3.14;84.17;103512.66;3581845;40;20044;-61
2022/01/14 02:11:38;;;;;;;37.85;15.00;;;;;;;3.09;84.14;103498.47;3590026;40;20291;-61
2022/01/14 02:14:13;;;;;;;41.97;14.85;;;;;;;3.12;84.24;103501.16;3586556;40;20095;-61
2022/01/14 02:22:08;;;;;;;25.80;14.75;;;;;;;3.12;83.94;103503.81;3556692;40;20120;-61
2022/01/14 02:22:50;;;;;;;22.98;13.70;;;;;;;3.17;84.29;103504.75;3589109;40;20094;-61
2022/01/14 02:25:28;;;;;;;31.55;14.90;;;;;;;3.06;84.75;103490.44;3587060;40;20055;-61
2022/01/14 02:28:20;;;;;;;31.83;14.90;;;;;;;3.14;84.54;103491.41;3584502;40;20094;-61
2022/01/14 02:30:49;;;;;;;36.63;13.70;;;;;;;3.14;84.15;103496.72;3588433;40;20471;-62
2022/01/14 02:33:18;;;;;;;30.25;12.88;;;;;;;3.09;83.95;103495.81;3589550;39;20438;-61
2022/01/14 02:35:48;;;;;;;24.17;13.73;;;;;;;3.09;83.90;103479.84;3582944;40;20044;-61
2022/01/14 02:38:16;;;;;;;29.88;14.00;;;;;;;3.07;83.62;103476.28;3588900;40;20389;-61
2022/01/14 02:40:44;;;;;;;34.78;13.02;;;;;;;3.03;83.46;103478.91;3588727;40;20083;-61
2022/01/14 02:43:15;;;;;;;27.15;12.73;;;;;;;3.02;83.90;103476.22;3586013;40;20060;-61
2022/01/14 02:45:48;;;;;;;38.47;13.45;;;;;;;3.02;83.28;103479.78;3586836;40;20048;-62
2022/01/14 02:48:14;;;;;;;37.85;12.93;;;;;;;2.98;83.56;103482.34;3586474;40;20083;-61
2022/01/14 02:50:52;;;;;;;25.45;13.30;;;;;;;2.91;84.11;103475.19;3581650;40;20060;-65
2022/01/14 02:53:28;;;;;;;36.58;13.10;;;;;;;2.94;84.20;103480.53;3616342;22;20422;-61
2022/01/14 02:56:00;;;;;;;25.48;13.57;;;;;;;2.89;83.61;103469.00;3577990;40;20044;-61
2022/01/14 02:58:30;;;;;;;22.73;13.27;;;;;;;2.92;83.98;103471.69;3586534;40;20475;-61
2022/01/14 03:01:03;;;;;;;29.20;13.20;;;;;;;2.91;83.64;103467.22;3584610;40;20051;-61
2022/01/14 03:03:34;;;;;;;28.83;13.40;;;;;;;2.94;84.03;103472.56;3581380;40;20059;-61
2022/01/14 03:06:03;;;;;;;33.47;13.00;;;;;;;2.90;84.10;103474.31;3577794;40;20161;-61
2022/01/14 03:08:30;;;;;;;31.60;12.02;;;;;;;2.96;84.36;103478.81;3569763;40;20090;-60
2022/01/14 03:11:06;;;;;;;43.08;14.05;;;;;;;2.97;83.51;103477.94;3575989;40;20068;-60
2022/01/14 03:13:33;;;;;;;45.83;14.18;;;;;;;2.85;84.24;103461.84;3578461;40;20384;-63
2022/01/14 03:16:02;;;;;;;41.05;13.05;;;;;;;2.94;83.86;103475.22;3576270;40;20071;-61
2022/01/14 03:18:34;;;;;;;28.85;14.65;;;;;;;2.95;83.59;103477.00;3578357;40;20079;-60
2022/01/14 03:21:10;;;;;;;39.80;13.45;;;;;;;2.64;83.60;103409.34;3577490;40;20067;-60
2022/01/14 03:23:48;;;;;;;36.97;13.25;;;;;;;2.90;84.01;103470.75;3580861;40;20048;-61
2022/01/14 03:26:20;;;;;;;36.40;13.80;;;;;;;2.58;83.65;103415.47;3579400;40;20053;-61
2022/01/14 03:28:48;;;;;;;23.30;11.88;;;;;;;2.89;83.81;103472.53;3577983;40;20138;-60
2022/01/14 03:31:15;;;;;;;29.35;13.45;;;;;;;2.89;83.76;103475.19;3579529;40;20096;-61
2022/01/14 03:33:41;;;;;;;28.05;13.30;;;;;;;2.75;83.40;103447.53;3579894;40;20122;-60
2022/01/14 03:36:08;;;;;;;27.33;13.07;;;;;;;2.90;83.42;103478.72;3578561;40;20163;-61
2022/01/14 03:38:35;;;;;;;34.25;13.75;;;;;;;2.70;84.04;103443.97;3580219;40;20085;-61
2022/01/14 03:41:02;;;;;;;36.28;13.57;;;;;;;2.88;83.34;103476.03;3577308;40;20083;-64
2022/01/14 03:43:28;;;;;;;32.67;13.50;;;;;;;2.88;83.86;103476.03;3579520;40;20064;-62
2022/01/14 03:45:53;;;;;;;32.58;14.05;;;;;;;2.87;84.00;103478.69;3579151;40;20096;-61
2022/01/14 03:48:19;;;;;;;38.92;13.70;;;;;;;2.85;83.29;103469.81;3577497;40;20055;-61
2022/01/14 03:50:46;;;;;;;42.08;13.10;;;;;;;2.83;83.26;103467.13;3575951;40;20119;-61
2022/01/14 03:53:12;;;;;;;33.88;13.40;;;;;;;2.83;83.81;103467.13;3580593;40;20057;-61
2022/01/14 03:55:43;;;;;;;32.85;13.77;;;;;;;2.83;84.32;103468.91;3582253;40;20060;-61
2022/01/14 03:58:09;;;;;;;39.65;13.68;;;;;;;2.83;83.83;103472.44;3582795;40;20296;-61
2022/01/14 04:00:36;;;;;;;38.92;12.57;;;;;;;2.82;83.87;103468.00;3580371;40;20395;-61
2022/01/14 04:03:05;;;;;;;43.90;13.95;;;;;;;2.84;83.92;103468.03;3576616;40;20116;-61
2022/01/14 04:05:32;;;;;;;37.30;13.20;;;;;;;2.74;83.88;103443.13;3581883;40;20063;-61
2022/01/14 04:07:58;;;;;;;44.97;14.98;;;;;;;2.86;83.89;103475.16;3581725;40;20182;-61
2022/01/14 04:10:25;;;;;;;38.30;13.13;;;;;;;2.56;83.79;103425.16;3579637;40;20052;-61
2022/01/14 04:13:02;;;;;;;48.85;13.23;;;;;;;2.83;83.58;103479.53;3579000;40;20056;-61
2022/01/14 04:15:47;;;;;;;60.80;14.40;;;;;;;2.81;83.63;103479.50;3577206;40;20056;-61
2022/01/14 04:18:19;;;;;;;43.15;12.95;;;;;;;2.80;83.36;103477.72;3580735;40;20303;-61
2022/01/14 04:20:49;;;;;;;43.47;13.25;;;;;;;2.78;83.83;103466.19;3580086;40;20064;-61
2022/01/14 04:23:22;;;;;;;26.77;12.90;;;;;;;2.81;83.45;103458.25;3579707;40;20059;-61
2022/01/14 04:25:53;;;;;;;29.45;13.20;;;;;;;2.83;84.09;103464.47;3582353;40;20056;-62
2022/01/14 04:28:24;;;;;;;38.75;12.73;;;;;;;2.79;83.43;103467.94;3578960;40;20083;-61
2022/01/14 04:30:54;;;;;;;23.95;12.32;;;;;;;2.79;83.17;103459.97;3578172;40;20383;-61
2022/01/14 04:33:23;;;;;;;36.75;12.75;;;;;;;2.75;83.56;103463.47;3578891;40;20394;-61
2022/01/14 04:35:49;;;;;;;24.55;12.85;;;;;;;2.74;83.60;103464.38;3580312;40;20063;-61
2022/01/14 04:38:14;;;;;;;32.97;13.45;;;;;;;2.75;84.20;103458.16;3581348;40;20053;-61
2022/01/14 04:40:40;;;;;;;31.92;12.48;;;;;;;2.75;83.58;103460.81;3579297;40;20044;-61
2022/01/14 04:43:07;;;;;;;80.70;14.85;;;;;;;2.72;83.01;103458.13;3568578;40;20059;-61
2022/01/14 04:48:06;;;;;;;44.97;12.88;;;;;;;2.62;83.27;103434.97;3579268;40;20548;-61
2022/01/14 04:50:32;;;;;;;38.53;12.30;;;;;;;2.68;83.27;103435.06;3579194;40;20047;-61
2022/01/14 04:52:58;;;;;;;31.75;12.25;;;;;;;2.67;84.04;103435.94;3577801;40;20066;-60
2022/01/14 04:55:27;;;;;;;34.40;11.68;;;;;;;2.66;83.24;103434.13;3579243;40;20064;-62
2022/01/14 04:57:55;;;;;;;31.67;12.70;;;;;;;2.65;83.23;103429.72;3578440;40;20064;-61
2022/01/14 05:00:28;;;;;;;37.70;13.38;;;;;;;2.64;84.08;103419.97;3577023;40;20102;-61
2022/01/14 05:02:55;;;;;;;26.65;11.88;;;;;;;2.56;84.08;103410.13;3577622;40;20166;-61
2022/01/14 05:05:25;;;;;;;21.30;12.25;;;;;;;2.67;83.78;103417.34;3573747;40;20063;-61
2022/01/14 05:07:51;;;;;;;39.03;12.00;;;;;;;2.64;83.00;103419.97;3576537;40;20053;-62
2022/01/14 05:12:52;;;;;;;26.45;12.75;;;;;;;2.62;83.27;103413.75;3578428;40;20040;-61
2022/01/14 05:15:19;;;;;;;28.33;12.05;;;;;;;2.33;83.25;103371.78;3578434;40;20122;-61
2022/01/14 05:17:47;;;;;;;30.35;11.70;;;;;;;2.54;83.71;103406.56;3576158;40;20508;-60
2022/01/14 05:20:14;;;;;;;23.83;11.80;;;;;;;2.52;83.19;103400.34;3575004;40;20057;-62
2022/01/14 05:22:40;;;;;;;30.88;11.63;;;;;;;2.58;82.99;103411.94;3579170;40;20063;-61
2022/01/14 05:25:09;;;;;;;32.60;11.30;;;;;;;2.55;83.18;103412.78;3579021;40;20053;-62
2022/01/14 05:27:36;;;;;;;19.38;11.55;;;;;;;2.56;83.97;103414.53;3580656;40;20060;-61
2022/01/14 05:30:09;;;;;;;31.30;11.75;;;;;;;2.57;83.42;103413.69;3577131;40;20098;-62
2022/01/14 05:32:35;;;;;;;37.67;11.43;;;;;;;2.55;83.04;103418.09;3580046;40;20085;-61
2022/01/14 05:35:03;;;;;;;24.50;11.68;;;;;;;2.52;83.08;103412.72;3571119;40;20296;-61
2022/01/14 05:37:29;;;;;;;21.13;12.07;;;;;;;2.48;83.27;103408.25;3577584;40;20453;-61
2022/01/14 05:39:57;;;;;;;23.77;11.68;;;;;;;2.45;83.30;103395.84;3574693;40;20227;-62
2022/01/14 05:42:22;;;;;;;32.38;11.90;;;;;;;2.49;83.74;103402.97;3578968;40;20041;-61
2022/01/14 05:44:48;;;;;;;24.67;11.85;;;;;;;2.46;83.09;103410.00;3578739;40;20062;-61
2022/01/14 05:47:13;;;;;;;36.97;11.20;;;;;;;2.43;83.90;103410.84;3578395;40;20057;-61
2022/01/14 05:49:39;;;;;;;73.22;13.05;;;;;;;2.41;83.34;103409.94;3578079;40;20064;-61
2022/01/14 05:52:05;;;;;;;26.73;12.38;;;;;;;2.39;83.08;103405.47;3581019;40;20049;-61
2022/01/14 05:54:30;;;;;;;24.50;11.15;;;;;;;2.40;84.07;103399.28;3580005;40;20056;-61
2022/01/14 05:56:56;;;;;;;22.20;11.32;;;;;;;2.38;83.64;103393.06;3578110;40;20421;-62
2022/01/14 05:59:22;;;;;;;29.88;13.15;;;;;;;2.39;83.58;103392.22;3580908;40;20049;-62
2022/01/14 06:01:47;;;;;;;34.83;12.07;;;;;;;2.36;83.39;103400.13;3577792;40;20048;-62
2022/01/14 06:04:13;;;;;;;27.30;12.77;;;;;;;2.37;83.63;103400.13;3577396;40;20052;-61
2022/01/14 06:06:39;;;;;;;25.33;12.02;;;;;;;2.38;83.65;103403.66;3579304;40;20102;-62
2022/01/14 06:09:05;;;;;;;26.38;12.25;;;;;;;2.34;83.60;103400.09;3579847;40;20056;-62
2022/01/14 06:11:30;;;;;;;25.20;12.63;;;;;;;2.33;82.84;103400.97;3576232;40;20052;-62
2022/01/14 06:13:57;;;;;;;33.63;14.02;;;;;;;2.36;84.29;103394.81;3569615;40;20060;-61
2022/01/14 06:16:23;;;;;;;18.05;12.38;;;;;;;2.39;83.82;103401.06;3577476;40;20457;-61
2022/01/14 06:18:49;;;;;;;35.67;13.23;;;;;;;2.38;83.88;103401.00;3580418;40;20048;-61
2022/01/14 06:21:15;;;;;;;32.22;12.90;;;;;;;2.37;83.89;103408.09;3579985;40;20048;-61
2022/01/14 06:23:41;;;;;;;22.98;12.75;;;;;;;2.37;83.34;103410.75;3579487;40;20082;-62
2022/01/14 06:26:08;;;;;;;21.27;12.15;;;;;;;2.38;83.59;103408.97;3576076;40;20072;-62
2022/01/14 06:28:34;;;;;;;24.50;13.02;;;;;;;2.38;83.71;103403.66;3578394;40;20048;-62
2022/01/14 06:31:00;;;;;;;23.73;13.48;;;;;;;2.39;83.29;103406.38;3578235;40;20306;-62
2022/01/14 06:33:26;;;;;;;31.35;13.25;;;;;;;2.42;83.78;103411.72;3569495;40;20080;-62
2022/01/14 06:35:52;;;;;;;37.83;13.45;;;;;;;2.41;83.65;103414.34;3579158;40;20044;-62
2022/01/14 06:38:19;;;;;;;29.02;13.77;;;;;;;2.43;83.91;103415.25;3578619;40;20057;-62
2022/01/14 06:40:49;;;;;;;25.88;13.23;;;;;;;2.45;83.57;103395.84;3578739;40;20059;-61
2022/01/14 06:43:16;;;;;;;34.67;14.52;;;;;;;2.25;83.85;103376.06;3580534;40;20150;-62
2022/01/14 06:45:42;;;;;;;54.00;14.85;;;;;;;2.21;82.89;103369.84;3580064;40;20075;-62
2022/01/14 06:48:09;;;;;;;30.88;13.45;;;;;;;2.44;82.98;103402.03;3579893;40;20383;-62
2022/01/14 06:50:35;;;;;;;25.98;14.63;;;;;;;2.40;83.66;103388.66;3577251;40;20054;-62
2022/01/14 06:53:01;;;;;;;30.38;14.48;;;;;;;2.41;83.53;103391.38;3571984;40;20359;-62
2022/01/14 06:55:26;;;;;;;39.55;15.10;;;;;;;2.37;83.16;103385.97;3579330;40;20059;-62
2022/01/14 06:57:52;;;;;;;45.90;14.98;;;;;;;2.36;83.55;103395.72;3580094;40;20138;-61
2022/01/14 07:00:21;;;;;;;35.47;15.85;;;;;;;2.36;82.87;103394.81;3578166;40;20045;-61
2022/01/14 07:02:47;;;;;;;41.10;16.02;;;;;;;1.67;83.78;103279.78;3579491;40;20099;-61
2022/01/14 07:05:13;;;;;;;37.17;15.38;;;;;;;2.35;83.80;103401.91;3580122;40;20449;-62
2022/01/14 07:07:40;;;;;;;49.05;15.52;;;;;;;2.36;84.21;103410.75;3583201;40;20099;-62
2022/01/14 07:10:07;;;;;;;44.55;16.65;;;;;;;2.35;83.38;103408.94;3581917;40;20137;-62
2022/01/14 07:12:40;;;;;;;54.30;17.10;;;;;;;2.33;83.12;103416.91;3581792;40;20122;-62
2022/01/14 07:15:10;;;;;;;64.85;18.33;;;;;;;2.33;83.67;103416.91;3583176;40;20067;-62
2022/01/14 07:17:38;;;;;;;38.45;17.05;;;;;;;2.08;84.04;103374.06;3581802;40;20416;-62
2022/01/14 07:20:08;;;;;;;45.83;16.92;;;;;;;2.36;83.32;103408.97;3578726;40;20052;-62
2022/01/14 07:22:35;;;;;;;36.92;17.95;;;;;;;2.35;83.24;103415.16;3581652;40;20068;-61
2022/01/14 07:25:01;;;;;;;30.23;16.92;;;;;;;2.36;83.93;103424.91;3581739;40;20095;-61
2022/01/14 07:27:27;;;;;;;46.63;17.30;;;;;;;2.36;84.25;103422.25;3580754;40;20055;-61
2022/01/14 07:29:54;;;;;;;61.13;18.17;;;;;;;2.38;83.59;103427.56;3584630;40;20055;-61
2022/01/14 07:32:20;;;;;;;56.55;20.25;;;;;;;2.35;83.30;103425.78;3581791;40;20154;-62
2022/01/14 07:34:47;;;;;;;53.15;16.55;;;;;;;2.32;83.92;103410.69;3583993;40;20383;-62
2022/01/14 07:37:13;;;;;;;63.13;17.17;;;;;;;2.32;83.40;103423.97;3581668;40;20045;-62
2022/01/14 07:39:39;;;;;;;54.60;17.67;;;;;;;2.30;83.38;103417.72;3581672;40;20057;-62
2022/01/14 07:42:05;;;;;;;56.45;16.83;;;;;;;2.31;84.22;103418.63;3580350;40;20107;-61
2022/01/14 07:44:30;;;;;;;39.30;17.02;;;;;;;2.32;83.70;103425.75;3582871;40;20153;-61
2022/01/14 07:46:56;;;;;;;43.53;16.58;;;;;;;2.20;83.94;103414.94;3581933;40;20055;-63
2022/01/14 07:49:22;;;;;;;50.20;18.08;;;;;;;2.26;83.86;103425.66;3579274;40;20129;-61
2022/01/14 07:51:47;;;;;;;35.08;17.25;;;;;;;2.24;84.29;103422.06;3579501;40;20044;-61
2022/01/14 07:54:13;;;;;;;47.42;18.23;;;;;;;1.97;83.86;103358.91;3576728;40;20096;-62
2022/01/14 07:56:47;;;;;;;42.75;18.30;;;;;;;2.22;83.86;103414.09;3579054;40;20052;-61
2022/01/14 07:59:16;;;;;;;54.85;18.05;;;;;;;2.24;83.73;103416.75;3580451;40;20049;-61
2022/01/14 08:01:46;;;;;;;34.00;17.63;;;;;;;2.26;84.41;103421.22;3578651;40;20063;-62
2022/01/14 08:04:13;;;;;;;37.15;17.67;;;;;;;2.26;84.03;103409.72;3580586;40;20062;-63
2022/01/14 08:06:45;;;;;;;39.28;17.13;;;;;;;2.28;84.23;103402.66;3577790;40;20429;-63
2022/01/14 08:09:13;;;;;;;85.55;18.15;;;;;;;2.26;84.31;103420.34;3579432;40;20047;-64
2022/01/14 08:11:38;;;;;;;58.72;18.02;;;;;;;2.24;83.52;103416.75;3579483;40;20052;-63
2022/01/14 08:14:04;;;;;;;47.17;17.33;;;;;;;2.26;84.06;103417.69;3581920;40;20063;-63
2022/01/14 08:16:30;;;;;;;43.20;21.27;;;;;;;2.29;83.70;103420.38;3579410;40;20071;-63
2022/01/14 08:18:55;;;;;;;50.17;18.92;;;;;;;2.34;83.84;103429.28;3578541;40;20090;-63
2022/01/14 08:21:21;;;;;;;39.17;17.73;;;;;;;2.35;84.23;103420.47;3579278;40;20111;-63
2022/01/14 08:23:47;;;;;;;53.33;18.15;;;;;;;2.18;83.59;103387.47;3579631;40;20068;-63
2022/01/14 08:26:13;;;;;;;42.08;18.35;;;;;;;2.13;84.06;103360.00;3580055;40;20319;-63
2022/01/14 08:28:39;;;;;;;42.53;18.45;;;;;;;2.39;83.83;103408.13;3579568;40;20390;-62
2022/01/14 08:31:04;;;;;;;36.15;18.67;;;;;;;2.42;84.42;103401.09;3579458;40;20064;-63
2022/01/14 08:33:30;;;;;;;33.75;17.95;;;;;;;2.33;84.07;103395.66;3578344;40;20079;-63
2022/01/14 08:35:56;;;;;;;43.95;18.35;;;;;;;2.43;84.49;103402.88;3581380;40;20048;-63
2022/01/14 08:38:21;;;;;;;49.13;19.08;;;;;;;2.45;83.32;103397.59;3579709;40;20387;-63
2022/01/14 08:40:48;;;;;;;55.70;18.60;;;;;;;2.47;83.28;103399.38;3583601;40;20063;-63
2022/01/14 08:43:14;;;;;;;48.05;19.13;;;;;;;2.47;83.90;103396.72;3579943;40;20049;-63
2022/01/14 08:45:39;;;;;;;44.70;18.38;;;;;;;2.48;83.52;103395.88;3582275;40;20044;-63
2022/01/14 08:48:06;;;;;;;53.05;19.02;;;;;;;2.56;84.20;103425.16;3580390;40;20075;-63
2022/01/14 08:50:36;;;;;;;65.68;21.95;;;;;;;2.56;84.27;103434.03;3580726;40;20122;-63
2022/01/14 08:53:10;;;;;;;53.22;22.15;;;;;;;2.60;84.35;103440.28;3577280;40;20061;-63
2022/01/14 08:55:36;;;;;;;51.42;20.55;;;;;;;2.46;84.16;103399.38;3576928;40;20127;-63
2022/01/14 08:58:04;;;;;;;52.05;22.83;;;;;;;2.70;84.25;103420.06;3576747;40;20334;-63
2022/01/14 09:00:30;;;;;;;40.45;21.83;;;;;;;2.72;84.22;103402.34;3581893;40;20087;-63
2022/01/14 09:02:56;;;;;;;41.53;20.63;;;;;;;2.71;84.51;103400.59;3577147;40;20045;-63
2022/01/14 09:05:24;;;;;;;43.00;21.15;;;;;;;2.71;84.60;103393.50;3578510;40;20064;-63
2022/01/14 09:07:51;;;;;;;41.85;20.92;;;;;;;2.81;84.46;103404.25;3580130;40;20060;-63
2022/01/14 09:10:19;;;;;;;36.28;21.13;;;;;;;2.87;83.98;103406.97;3569127;40;20431;-63
2022/01/14 09:12:45;;;;;;;50.70;21.48;;;;;;;2.91;84.11;103408.78;3577091;40;20048;-63
2022/01/14 09:15:12;;;;;;;41.67;19.77;;;;;;;2.91;83.15;103409.66;3581605;40;20063;-63
2022/01/14 09:17:40;;;;;;;52.40;22.85;;;;;;;2.93;83.55;103415.91;3580317;40;20052;-63
2022/01/14 09:20:08;;;;;;;36.90;20.88;;;;;;;3.01;83.51;103413.31;3581018;40;20062;-63
2022/01/14 09:22:35;;;;;;;50.22;20.88;;;;;;;3.00;83.12;103423.06;3580242;40;20078;-63
2022/01/14 09:25:07;;;;;;;41.33;21.98;;;;;;;3.07;84.07;103413.38;3578758;40;20332;-63
2022/01/14 09:27:33;;;;;;;37.20;21.08;;;;;;;3.12;83.41;103419.66;3578715;40;20145;-63
2022/01/14 09:30:06;;;;;;;37.92;21.63;;;;;;;3.15;83.15;103410.84;3576825;40;20044;-63
2022/01/14 09:32:32;;;;;;;37.10;20.55;;;;;;;3.20;84.18;103417.06;3577797;40;20063;-63
2022/01/14 09:35:02;;;;;;;37.00;21.95;;;;;;;3.26;83.87;103414.47;3578806;40;20130;-63
2022/01/14 09:37:28;;;;;;;41.20;22.23;;;;;;;3.28;83.78;103417.16;3579210;40;20060;-64
2022/01/14 09:39:54;;;;;;;43.05;22.58;;;;;;;3.34;83.76;103428.75;3580446;40;20056;-63
2022/01/14 09:42:20;;;;;;;49.38;23.20;;;;;;;3.08;82.92;103356.72;3564826;40;20052;-63
2022/01/14 09:44:45;;;;;;;33.03;21.40;;;;;;;3.36;83.17;103411.06;3575466;40;20376;-63
2022/01/14 09:47:20;;;;;;;38.05;21.80;;;;;;;3.40;82.77;103409.31;3578523;40;20051;-64
2022/01/14 09:49:46;;;;;;;48.08;21.83;;;;;;;3.42;83.16;103419.06;3579143;40;20060;-64
2022/01/14 09:52:15;;;;;;;38.72;21.30;;;;;;;3.48;82.86;103418.22;3578479;40;20057;-63
2022/01/14 09:54:42;;;;;;;37.95;22.58;;;;;;;3.51;83.13;103425.34;3576679;40;20300;-64
2022/01/14 09:57:11;;;;;;;56.00;21.30;;;;;;;3.41;82.84;103409.31;3577624;40;20060;-63
2022/01/14 09:59:36;;;;;;;38.22;22.70;;;;;;;3.59;83.39;103421.00;3568167;40;20056;-64
2022/01/14 10:02:03;;;;;;;49.25;22.05;;;;;;;3.63;83.34;103433.44;3576072;40;20741;-63
2022/01/14 10:04:29;;;;;;;39.63;21.88;;;;;;;3.66;83.08;103441.47;3574862;40;20142;-64
2022/01/14 10:07:00;;;;;;;45.97;22.48;;;;;;;3.69;83.42;103436.16;3574328;40;20051;-63
2022/01/14 10:09:37;;;;;;;41.85;21.20;;;;;;;3.66;82.53;103436.13;3577205;40;20391;-63
2022/01/14 10:12:13;;;;;;;34.70;21.63;;;;;;;3.66;83.10;103433.47;3577646;40;20834;-63
2022/01/14 10:15:09;;;;;;;55.10;22.92;;;;;;;3.66;82.96;103441.47;3580107;40;20093;-64
2022/01/14 10:17:42;;;;;;;42.53;23.73;;;;;;;3.68;83.30;103455.69;3575366;40;20115;-63
2022/01/14 10:20:14;;;;;;;49.35;23.75;;;;;;;3.51;83.30;103409.41;3578316;40;20060;-63
2022/01/14 10:22:43;;;;;;;45.38;23.10;;;;;;;3.74;83.22;103453.03;3580249;40;20377;-63
2022/01/14 10:25:14;;;;;;;42.85;23.85;;;;;;;3.76;83.42;103453.97;3575334;40;20049;-63
2022/01/14 10:27:52;;;;;;;40.92;22.48;;;;;;;3.43;83.07;103394.28;3577956;40;20328;-63
2022/01/14 10:30:27;;;;;;;45.30;23.23;;;;;;;3.79;83.55;103448.66;3579273;40;20513;-63
2022/01/14 10:33:05;;;;;;;37.58;23.58;;;;;;;3.84;83.44;103446.06;3577982;40;20045;-63
2022/01/14 10:35:37;;;;;;;39.25;24.08;;;;;;;3.86;83.03;103438.97;3580209;40;20068;-63
2022/01/14 10:38:12;;;;;;;39.15;24.35;;;;;;;3.92;83.40;103447.00;3580807;40;20072;-63
2022/01/14 10:40:48;;;;;;;38.45;22.85;;;;;;;3.93;83.07;103446.09;3578461;40;20100;-63
2022/01/14 10:43:21;;;;;;;42.75;23.27;;;;;;;3.98;82.57;103431.06;3577372;40;20059;-63
2022/01/14 10:45:50;;;;;;;38.70;24.02;;;;;;;3.99;82.56;103432.84;3580274;40;20228;-63
2022/01/14 10:48:54;;;;;;;43.15;24.17;;;;;;;4.03;83.03;103425.78;3579986;40;20290;-63
2022/01/14 10:51:20;;;;;;;38.47;22.27;;;;;;;4.04;82.84;103408.94;3579959;40;20052;-64
2022/01/14 10:53:54;;;;;;;40.78;24.67;;;;;;;4.12;82.89;103425.84;3582100;40;20056;-63
2022/01/14 10:56:27;;;;;;;35.58;23.25;;;;;;;4.15;82.74;103425.88;3581307;40;20273;-63
2022/01/14 10:58:58;;;;;;;31.90;20.60;;;;;;;4.21;82.32;103430.34;3580538;40;20126;-64
2022/01/14 11:01:28;;;;;;;30.92;20.58;;;;;;;4.25;81.91;103419.75;3580182;40;20044;-63
2022/01/14 11:04:01;;;;;;;35.90;22.35;;;;;;;4.26;81.90;103426.84;3578092;40;20060;-63
2022/01/14 11:06:34;;;;;;;36.47;22.60;;;;;;;4.26;82.06;103415.31;3581243;40;20052;-63
2022/01/14 11:09:06;;;;;;;35.30;22.35;;;;;;;4.31;81.84;103421.53;3581092;40;20060;-63
2022/01/14 11:11:38;;;;;;;32.08;21.85;;;;;;;4.31;82.01;103413.53;3581811;40;20732;-63
2022/01/14 11:14:06;;;;;;;37.15;22.73;;;;;;;4.35;82.68;103413.59;3578614;40;20064;-63
2022/01/14 11:16:33;;;;;;;34.97;22.67;;;;;;;4.38;82.25;103412.72;3579121;40;20086;-64
2022/01/14 11:19:01;;;;;;;37.72;22.77;;;;;;;4.40;82.32;103410.94;3579926;40;20068;-64
2022/01/14 11:24:39;;;;;;;36.17;23.35;;;;;;;4.49;82.22;103407.44;3579925;40;20060;-63
2022/01/14 11:27:15;;;;;;;33.92;22.77;;;;;;;4.50;81.29;103404.75;3577060;40;20121;-63
2022/01/14 11:29:48;;;;;;;34.85;23.52;;;;;;;4.51;81.68;103403.03;3582186;40;20118;-64
2022/01/14 11:32:14;;;;;;;36.97;23.30;;;;;;;4.52;82.25;103407.44;3576709;40;20134;-63
2022/01/14 11:34:46;;;;;;;34.85;23.55;;;;;;;4.35;82.72;103373.66;3581379;40;20071;-63
2022/01/14 11:37:32;;;;;;;38.95;24.85;;;;;;;4.58;82.75;103410.16;3580874;40;20057;-63
2022/01/14 11:40:08;;;;;;;33.72;24.10;;;;;;;4.62;82.01;103406.59;3581408;40;20310;-64
2022/01/14 11:43:10;;;;;;;36.28;23.80;;;;;;;4.63;82.07;103409.28;3580444;40;20125;-64
2022/01/14 11:45:40;;;;;;;34.65;24.67;;;;;;;4.64;82.24;103415.50;3577712;40;20051;-63
2022/01/14 11:48:06;;;;;;;36.15;23.80;;;;;;;4.53;82.02;103391.47;3582154;40;20130;-63
2022/01/14 11:50:32;;;;;;;39.72;25.45;;;;;;;4.64;81.75;103407.53;3577474;40;20055;-63